Time;durP1;ratioP1;P1;durP2;ratioP2;P2;SDS_P1;SDS_P2;PMS_P1;PMS_P2;Temp;Humidity;BMP_temperature;BMP_pressure;BME280_temperature;BME280_humidity;BME280_pressure;Samples;Min_cycle;Max_cycle;Signal;HPM_P1;HPM_P2
2022/11/25 00:01:30;;;;;;;14.03;6.50;;;4.50;11.00;;;;;;5001184;28;20205;-71
2022/11/25 00:03:57;;;;;;;12.63;7.13;;;4.40;12.80;;;;;;5005532;28;20947;-70
2022/11/25 00:06:24;;;;;;;11.70;6.20;;;4.50;15.00;;;;;;5008550;28;20518;-71
2022/11/25 00:08:55;;;;;;;13.43;6.70;;;4.60;13.00;;;;;;5008039;28;20496;-71
2022/11/25 00:11:21;;;;;;;12.47;6.20;;;4.60;11.60;;;;;;5002113;28;20445;-71
2022/11/25 00:13:47;;;;;;;12.20;6.00;;;4.60;10.80;;;;;;4997866;28;20923;-71
2022/11/25 00:16:16;;;;;;;17.93;6.67;;;4.60;7.50;;;;;;5003844;28;20183;-71
2022/11/25 00:18:46;;;;;;;11.20;6.00;;;4.60;10.20;;;;;;5003347;28;20931;-70
2022/11/25 00:21:13;;;;;;;11.60;6.50;;;4.50;13.30;;;;;;5002520;28;21129;-70
2022/11/25 00:23:39;;;;;;;11.50;5.90;;;4.60;10.30;;;;;;5001551;28;20436;-71
2022/11/25 00:26:09;;;;;;;13.07;6.90;;;4.50;10.00;;;;;;5003959;28;20468;-71
2022/11/25 00:28:35;;;;;;;10.87;6.30;;;4.50;11.80;;;;;;5001199;28;20197;-71
2022/11/25 00:31:12;;;;;;;14.60;5.63;;;4.40;14.40;;;;;;5008353;28;20410;-68
2022/11/25 00:33:39;;;;;;;15.33;6.40;;;4.40;14.30;;;;;;5001030;28;20186;-70
2022/11/25 00:36:06;;;;;;;11.93;6.17;;;4.30;11.90;;;;;;5000697;28;20422;-71
2022/11/25 00:38:32;;;;;;;12.87;5.90;;;4.30;14.00;;;;;;5008086;28;20816;-71
2022/11/25 00:46:26;;;;;;;12.90;5.93;;;4.30;16.30;;;;;;5001643;28;20473;-71
2022/11/25 00:48:52;;;;;;;13.27;6.00;;;4.20;15.70;;;;;;4997082;28;20434;-69
2022/11/25 00:51:17;;;;;;;12.67;5.73;;;4.20;18.10;;;;;;5007989;28;20719;-71
2022/11/25 00:53:43;;;;;;;15.17;5.83;;;4.20;17.80;;;;;;5009069;28;20183;-72
2022/11/25 00:56:14;;;;;;;17.73;6.57;;;4.20;14.00;;;;;;5015823;28;20217;-70
2022/11/25 00:58:41;;;;;;;9.97;5.70;;;4.20;14.40;;;;;;5007519;28;20183;-70
2022/11/25 01:01:08;;;;;;;10.50;5.80;;;4.20;14.80;;;;;;5005328;28;20501;-71
2022/11/25 01:03:35;;;;;;;9.63;5.70;;;4.20;14.80;;;;;;5016716;28;20543;-71
2022/11/25 01:06:02;;;;;;;11.83;5.90;;;4.20;11.30;;;;;;4993814;28;20452;-71
2022/11/25 01:08:29;;;;;;;11.10;5.70;;;4.20;13.10;;;;;;5011721;28;21000;-71
2022/11/25 01:11:07;;;;;;;12.83;6.53;;;4.20;14.00;;;;;;4992999;28;20403;-70
2022/11/25 01:13:32;;;;;;;9.90;4.57;;;4.20;13.90;;;;;;5009974;28;20740;-71
2022/11/25 01:16:05;;;;;;;14.57;5.90;;;4.30;13.10;;;;;;5008983;28;20410;-70
2022/11/25 01:18:32;;;;;;;9.50;5.23;;;4.20;12.40;;;;;;5010212;28;20495;-71
2022/11/25 01:21:08;;;;;;;8.93;5.67;;;4.20;13.90;;;;;;5010614;28;20948;-70
2022/11/25 01:23:34;;;;;;;13.80;5.30;;;4.20;14.50;;;;;;5012327;28;20424;-71
2022/11/25 01:26:04;;;;;;;11.77;5.30;;;4.30;15.50;;;;;;5015610;28;20464;-71
2022/11/25 01:28:30;;;;;;;9.93;4.73;;;4.30;15.20;;;;;;5002987;28;20178;-72
2022/11/25 01:30:59;;;;;;;8.23;5.00;;;4.30;13.80;;;;;;5008324;28;20913;-70
2022/11/25 01:33:25;;;;;;;8.43;4.47;;;4.40;16.00;;;;;;5004066;28;20511;-71
2022/11/25 01:35:51;;;;;;;8.43;4.53;;;4.40;16.20;;;;;;5016002;28;20975;-71
2022/11/25 01:38:16;;;;;;;11.57;5.00;;;4.40;18.00;;;;;;5008512;28;20195;-71
2022/11/25 01:40:42;;;;;;;13.73;5.10;;;4.50;15.10;;;;;;5006136;28;20289;-70
2022/11/25 01:43:13;;;;;;;13.50;4.97;;;4.50;17.80;;;;;;4998428;28;20185;-70
2022/11/25 01:45:39;;;;;;;10.33;4.43;;;4.60;23.30;;;;;;5011753;28;20194;-71
2022/11/25 01:48:21;;;;;;;18.97;5.90;;;4.80;23.80;;;;;;5007267;28;20456;-70
2022/11/25 01:50:48;;;;;;;7.27;4.40;;;4.90;23.30;;;;;;5007876;28;20202;-71
2022/11/25 01:53:15;;;;;;;8.00;4.10;;;5.00;22.00;;;;;;5010366;28;20947;-71
2022/11/25 01:55:50;;;;;;;15.73;4.43;;;5.00;23.20;;;;;;5018683;28;20906;-71
2022/11/25 01:58:21;;;;;;;13.33;5.07;;;5.10;27.00;;;;;;5003836;28;20459;-71
2022/11/25 02:00:50;;;;;;;18.20;4.93;;;5.20;25.60;;;;;;5008166;28;20422;-71
2022/11/25 02:03:23;;;;;;;11.87;4.43;;;5.70;23.50;;;;;;5006214;28;20919;-71
2022/11/25 02:05:56;;;;;;;12.23;4.30;;;6.00;22.90;;;;;;5006595;28;21002;-71
2022/11/25 02:08:24;;;;;;;12.20;4.43;;;5.40;21.40;;;;;;5016069;28;20453;-70
2022/11/25 02:10:52;;;;;;;12.63;4.77;;;5.50;22.70;;;;;;4996139;28;20504;-69
2022/11/25 02:13:19;;;;;;;9.10;4.57;;;5.50;21.10;;;;;;5015750;28;20417;-71
2022/11/25 02:15:45;;;;;;;10.57;4.67;;;5.50;20.20;;;;;;5011549;28;20496;-72
2022/11/25 02:18:10;;;;;;;11.10;5.10;;;5.50;20.80;;;;;;5011634;28;20605;-71
2022/11/25 02:20:38;;;;;;;7.43;4.33;;;5.60;19.30;;;;;;5004186;28;20178;-71
2022/11/25 02:23:30;;;;;;;11.93;4.90;;;5.60;22.40;;;;;;5010066;28;20205;-71
2022/11/25 02:25:55;;;;;;;10.67;5.40;;;5.70;21.80;;;;;;4999093;28;20841;-70
2022/11/25 02:28:28;;;;;;;23.57;6.40;;;5.70;23.80;;;;;;4991514;28;20434;-70
2022/11/25 02:30:54;;;;;;;16.77;5.83;;;5.90;23.00;;;;;;5006204;28;20173;-69
2022/11/25 02:33:20;;;;;;;14.63;5.50;;;5.90;21.10;;;;;;5000909;28;20437;-70
2022/11/25 02:35:47;;;;;;;13.83;5.90;;;5.90;21.10;;;;;;4998110;28;20179;-69
2022/11/25 02:38:36;;;;;;;13.10;6.33;;;6.00;20.20;;;;;;4993276;28;20625;-69
2022/11/25 02:41:25;;;;;;;14.63;5.60;;;6.10;18.70;;;;;;5009874;28;20548;-69
2022/11/25 02:43:51;;;;;;;14.60;7.70;;;6.20;15.40;;;;;;5010550;28;20416;-69
2022/11/25 02:46:19;;;;;;;25.33;13.00;;;6.30;12.10;;;;;;5010650;28;20453;-70
2022/11/25 02:48:45;;;;;;;18.47;9.83;;;6.30;14.10;;;;;;5010627;28;20726;-70
2022/11/25 02:51:13;;;;;;;8.77;5.67;;;6.30;13.30;;;;;;5007702;28;20520;-68
2022/11/25 02:53:40;;;;;;;15.13;5.63;;;6.40;11.50;;;;;;5009968;28;20256;-70
2022/11/25 02:56:06;;;;;;;7.70;4.60;;;6.40;7.10;;;;;;5011760;28;20468;-69
2022/11/25 02:58:32;;;;;;;12.83;4.90;;;6.40;8.90;;;;;;5010163;28;20405;-69
2022/11/25 03:00:58;;;;;;;11.60;5.30;;;6.50;8.30;;;;;;5006457;28;20503;-69
2022/11/25 03:03:23;;;;;;;17.27;7.63;;;6.40;7.60;;;;;;4994726;28;20565;-69
2022/11/25 03:05:49;;;;;;;11.10;6.77;;;6.50;7.40;;;;;;5000788;28;20194;-68
2022/11/25 03:08:15;;;;;;;16.30;6.80;;;6.50;5.80;;;;;;4992927;28;20225;-69
2022/11/25 03:10:40;;;;;;;15.23;6.30;;;6.50;5.30;;;;;;5012069;28;20181;-69
2022/11/25 03:13:07;;;;;;;13.63;5.33;;;6.60;4.70;;;;;;4989506;28;20410;-68
2022/11/25 03:15:33;;;;;;;13.40;5.30;;;6.60;3.80;;;;;;5013482;28;20186;-68
2022/11/25 03:17:59;;;;;;;9.73;5.33;;;6.60;4.40;;;;;;4991335;28;20952;-69
2022/11/25 03:20:25;;;;;;;13.80;5.57;;;6.60;2.80;;;;;;5009813;28;20433;-69
2022/11/25 03:22:50;;;;;;;11.33;4.70;;;6.60;2.80;;;;;;4993053;28;20186;-69
2022/11/25 03:25:16;;;;;;;11.10;5.90;;;6.70;2.50;;;;;;5009042;28;20206;-69
2022/11/25 03:27:42;;;;;;;17.63;5.10;;;6.70;1.10;;;;;;5000819;28;20191;-70
2022/11/25 03:30:12;;;;;;;15.33;5.60;;;6.70;1.60;;;;;;5012063;28;20491;-71
2022/11/25 03:32:37;;;;;;;10.17;5.53;;;6.70;1.50;;;;;;4997019;28;20178;-70
2022/11/25 03:35:04;;;;;;;9.77;5.20;;;6.70;1.00;;;;;;5011776;28;20449;-70
2022/11/25 03:37:30;;;;;;;12.40;5.17;;;6.70;1.00;;;;;;4993239;28;20191;-70
2022/11/25 03:39:55;;;;;;;15.10;5.27;;;6.70;1.00;;;;;;5007383;28;20808;-71
2022/11/25 03:42:21;;;;;;;9.40;5.60;;;6.80;1.00;;;;;;5008870;28;20756;-70
2022/11/25 03:44:46;;;;;;;9.00;4.83;;;6.80;1.00;;;;;;5014907;28;20598;-70
2022/11/25 03:47:12;;;;;;;14.57;5.30;;;6.80;1.00;;;;;;4999365;28;20715;-70
2022/11/25 03:49:37;;;;;;;13.83;5.03;;;6.80;1.00;;;;;;5004163;28;20660;-71
2022/11/25 03:52:03;;;;;;;16.23;5.07;;;6.80;1.00;;;;;;5009295;28;20213;-71
2022/11/25 03:54:29;;;;;;;12.50;5.30;;;6.80;1.00;;;;;;5010256;28;20640;-70
2022/11/25 03:56:54;;;;;;;13.67;5.30;;;6.80;1.00;;;;;;5006946;28;20218;-68
2022/11/25 03:59:20;;;;;;;8.27;4.33;;;6.80;1.00;;;;;;5013690;28;20182;-70
2022/11/25 04:01:45;;;;;;;10.20;4.83;;;6.90;1.00;;;;;;5007560;28;20198;-71
2022/11/25 04:04:11;;;;;;;10.87;4.63;;;6.90;1.00;;;;;;5009364;28;20213;-71
2022/11/25 04:06:38;;;;;;;11.47;5.00;;;6.90;1.00;;;;;;5020170;28;20688;-71
2022/11/25 04:09:04;;;;;;;11.90;4.70;;;6.90;1.00;;;;;;4997005;28;20263;-70
2022/11/25 04:14:14;;;;;;;12.23;4.70;;;6.90;1.00;;;;;;4990114;28;20490;-71
2022/11/25 04:16:39;;;;;;;7.93;4.20;;;7.00;1.00;;;;;;5002108;28;20544;-71
2022/11/25 04:19:05;;;;;;;7.90;4.53;;;7.00;1.00;;;;;;4996650;28;20542;-70
2022/11/25 04:21:30;;;;;;;14.77;5.20;;;7.00;1.00;;;;;;5002783;28;20217;-71
2022/11/25 04:23:56;;;;;;;16.67;4.60;;;7.00;1.00;;;;;;5005065;28;20549;-70
2022/11/25 04:26:21;;;;;;;11.40;4.70;;;7.00;1.00;;;;;;5014855;28;20592;-70
2022/11/25 04:28:47;;;;;;;11.70;4.77;;;7.00;1.00;;;;;;5009046;28;20166;-71
2022/11/25 04:31:13;;;;;;;17.50;4.67;;;7.00;1.00;;;;;;5005082;28;20184;-71
2022/11/25 04:33:38;;;;;;;12.03;5.77;;;7.00;1.00;;;;;;5006567;28;20686;-70
2022/11/25 04:36:04;;;;;;;12.47;5.00;;;7.00;1.00;;;;;;4996601;28;20178;-70
2022/11/25 04:38:30;;;;;;;11.27;4.83;;;7.00;1.00;;;;;;4996479;28;20175;-70
2022/11/25 04:40:55;;;;;;;16.43;4.77;;;6.90;1.00;;;;;;5009719;28;20175;-69
2022/11/25 04:43:21;;;;;;;17.90;5.40;;;7.00;1.00;;;;;;5007225;28;20261;-70
2022/11/25 04:45:47;;;;;;;14.30;4.60;;;7.00;1.00;;;;;;5011519;28;20202;-70
2022/11/25 04:48:13;;;;;;;8.40;4.90;;;7.00;1.00;;;;;;5012443;28;20197;-70
2022/11/25 04:50:38;;;;;;;10.10;5.97;;;6.90;1.00;;;;;;5009650;28;20421;-71
2022/11/25 04:53:04;;;;;;;11.33;4.93;;;6.90;1.00;;;;;;5007136;28;20395;-70
2022/11/25 04:55:30;;;;;;;11.50;4.50;;;6.90;1.00;;;;;;5013719;28;20194;-71
2022/11/25 04:57:55;;;;;;;15.37;5.30;;;6.90;1.00;;;;;;5001288;28;20661;-71
2022/11/25 05:00:21;;;;;;;11.93;6.37;;;6.80;1.00;;;;;;5008383;28;20472;-71
2022/11/25 05:02:47;;;;;;;12.50;5.87;;;6.80;1.00;;;;;;5001652;28;20189;-70
2022/11/25 05:05:13;;;;;;;11.10;5.20;;;6.70;1.00;;;;;;4996148;28;20203;-71
2022/11/25 05:07:38;;;;;;;11.50;6.03;;;6.70;1.10;;;;;;4992231;28;20214;-71
2022/11/25 05:10:05;;;;;;;13.77;5.40;;;6.60;2.00;;;;;;5017521;28;20374;-70
2022/11/25 05:12:31;;;;;;;14.97;5.23;;;6.60;2.80;;;;;;5009408;28;20653;-70
2022/11/25 05:14:57;;;;;;;12.30;4.63;;;6.50;3.40;;;;;;5009113;28;20456;-70
2022/11/25 05:17:25;;;;;;;16.00;5.13;;;6.40;3.90;;;;;;5017585;28;20694;-71
2022/11/25 05:19:51;;;;;;;8.10;4.70;;;6.40;3.90;;;;;;4999274;28;20166;-69
2022/11/25 05:22:20;;;;;;;10.50;4.93;;;6.40;3.20;;;;;;5010594;28;20950;-70
2022/11/25 05:24:46;;;;;;;14.00;6.13;;;6.40;4.20;;;;;;5013043;28;20683;-71
2022/11/25 05:27:12;;;;;;;11.53;4.87;;;6.30;4.50;;;;;;5011818;28;20434;-71
2022/11/25 05:29:37;;;;;;;13.13;5.87;;;6.30;4.20;;;;;;5011371;28;20208;-71
2022/11/25 05:32:04;;;;;;;11.40;5.53;;;6.30;4.40;;;;;;5003575;28;20192;-70
2022/11/25 05:34:30;;;;;;;10.20;5.07;;;6.30;3.70;;;;;;5022362;28;20209;-70
2022/11/25 05:36:56;;;;;;;15.37;5.20;;;6.30;3.60;;;;;;5010715;28;20470;-71
2022/11/25 05:39:21;;;;;;;15.77;5.90;;;6.40;3.10;;;;;;5004336;28;20286;-70
2022/11/25 05:41:47;;;;;;;9.47;5.30;;;6.50;1.70;;;;;;5007288;28;20964;-70
2022/11/25 05:44:12;;;;;;;10.50;4.70;;;6.60;1.00;;;;;;5002633;28;20261;-70
2022/11/25 05:46:38;;;;;;;11.40;4.63;;;6.70;1.00;;;;;;5007295;28;20210;-71
2022/11/25 05:49:03;;;;;;;10.20;5.00;;;6.80;1.00;;;;;;5009251;28;20185;-70
2022/11/25 05:51:29;;;;;;;12.13;4.37;;;6.80;1.00;;;;;;5007191;28;20193;-71
2022/11/25 05:53:55;;;;;;;8.67;4.30;;;6.90;1.00;;;;;;5008973;28;20186;-70
2022/11/25 05:56:22;;;;;;;9.30;5.10;;;6.80;1.00;;;;;;5011792;28;20486;-71
2022/11/25 05:58:47;;;;;;;10.40;4.27;;;6.80;1.00;;;;;;5005798;28;20441;-71
2022/11/25 06:01:14;;;;;;;7.40;5.00;;;6.80;1.00;;;;;;5005387;28;20478;-71
2022/11/25 06:03:41;;;;;;;10.23;4.50;;;6.80;1.00;;;;;;5008383;28;20410;-71
2022/11/25 06:06:07;;;;;;;8.37;4.70;;;6.80;1.00;;;;;;5017357;28;20461;-70
2022/11/25 06:08:34;;;;;;;8.90;5.00;;;6.80;1.00;;;;;;5009478;28;20477;-71
2022/11/25 06:11:11;;;;;;;10.80;6.67;;;6.80;1.00;;;;;;4998781;28;20432;-69
2022/11/25 06:13:37;;;;;;;16.00;6.57;;;6.80;1.00;;;;;;4999971;28;20441;-71
2022/11/25 06:16:17;;;;;;;7.20;5.20;;;6.90;1.00;;;;;;4997920;28;20421;-70
2022/11/25 06:18:42;;;;;;;16.23;6.03;;;6.90;1.00;;;;;;5005480;28;20774;-71
2022/11/25 06:21:09;;;;;;;9.57;5.10;;;6.90;1.00;;;;;;5001449;28;20417;-70
2022/11/25 06:23:36;;;;;;;12.10;4.60;;;7.00;1.00;;;;;;5011354;28;20186;-69
2022/11/25 06:26:07;;;;;;;12.30;5.70;;;7.10;1.00;;;;;;5013523;28;20473;-69
2022/11/25 06:28:33;;;;;;;10.90;4.57;;;7.10;1.00;;;;;;5015681;28;20539;-71
2022/11/25 06:31:06;;;;;;;9.47;4.80;;;7.20;1.00;;;;;;5005151;28;20457;-69
2022/11/25 06:33:32;;;;;;;12.57;4.40;;;7.30;1.00;;;;;;4991421;28;20215;-70
2022/11/25 06:35:57;;;;;;;9.00;4.30;;;7.30;1.00;;;;;;5004473;28;20481;-72
2022/11/25 06:38:23;;;;;;;9.23;4.03;;;7.30;1.00;;;;;;5009269;28;20576;-72
2022/11/25 06:40:48;;;;;;;7.73;4.23;;;7.30;1.00;;;;;;4997780;28;20544;-76
2022/11/25 06:43:14;;;;;;;8.57;4.87;;;;;;;;;;5025796;28;20635;-77
2022/11/25 06:45:40;;;;;;;5.73;4.00;;;8.50;12.20;;;;;;5012251;28;20194;-74
2022/11/25 06:48:05;;;;;;;8.30;3.83;;;8.80;10.50;;;;;;5013423;28;20198;-71
2022/11/25 06:50:31;;;;;;;10.73;3.87;;;8.80;1.00;;;;;;5001564;28;20186;-71
2022/11/25 06:52:58;;;;;;;8.33;4.30;;;8.50;1.00;;;;;;5006426;28;20295;-71
2022/11/25 06:55:24;;;;;;;9.77;3.97;;;8.30;1.00;;;;;;5006605;28;20188;-71
2022/11/25 06:57:49;;;;;;;7.90;3.73;;;8.20;1.00;;;;;;4999154;28;20651;-71
2022/11/25 07:00:15;;;;;;;8.50;4.17;;;8.10;1.00;;;;;;5006578;28;20233;-71
2022/11/25 07:02:41;;;;;;;11.20;4.20;;;8.10;1.00;;;;;;5007825;28;20197;-71
2022/11/25 07:05:07;;;;;;;9.43;3.90;;;8.10;1.00;;;;;;5008518;28;20195;-71
2022/11/25 07:07:32;;;;;;;9.60;3.57;;;8.00;1.00;;;;;;5009772;28;20271;-71
2022/11/25 07:09:58;;;;;;;10.23;3.90;;;8.00;1.00;;;;;;5007713;28;20551;-72
2022/11/25 07:12:23;;;;;;;13.80;4.90;;;7.90;1.00;;;;;;5007960;28;20228;-71
2022/11/25 07:14:50;;;;;;;11.63;4.03;;;7.80;1.00;;;;;;4998538;28;20696;-71
2022/11/25 07:17:16;;;;;;;9.07;4.27;;;7.80;1.00;;;;;;5008990;28;20254;-71
2022/11/25 07:19:41;;;;;;;7.67;3.97;;;7.70;1.00;;;;;;5013485;28;20483;-72
2022/11/25 07:22:07;;;;;;;8.77;4.27;;;9.30;1.00;;;;;;4999330;28;20182;-70
2022/11/25 07:24:32;;;;;;;10.37;4.30;;;7.60;1.00;;;;;;5011195;28;20550;-71
2022/11/25 07:26:58;;;;;;;11.00;4.63;;;7.60;1.00;;;;;;5008691;28;20206;-71
2022/11/25 07:29:23;;;;;;;8.87;5.13;;;7.60;1.00;;;;;;5010847;28;20182;-71
2022/11/25 07:31:49;;;;;;;8.90;5.40;;;7.60;1.00;;;;;;4999821;28;20612;-71
2022/11/25 07:34:18;;;;;;;11.07;5.60;;;7.60;1.00;;;;;;5008908;28;20621;-69
2022/11/25 07:36:45;;;;;;;12.27;5.60;;;7.60;1.00;;;;;;5015123;28;20195;-71
2022/11/25 07:39:14;;;;;;;14.10;5.13;;;7.60;1.00;;;;;;4997397;28;20442;-72
2022/11/25 07:41:40;;;;;;;10.57;4.47;;;7.70;1.00;;;;;;5000921;28;20536;-71
2022/11/25 07:44:07;;;;;;;10.90;4.20;;;7.70;1.00;;;;;;5011559;28;20437;-71
2022/11/25 07:46:38;;;;;;;9.93;4.50;;;7.70;1.00;;;;;;5001525;28;20461;-71
2022/11/25 07:49:13;;;;;;;10.53;4.30;;;7.80;1.00;;;;;;5022964;28;20433;-72
2022/11/25 07:51:52;;;;;;;10.07;4.40;;;7.80;1.00;;;;;;5021525;28;20441;-71
2022/11/25 07:54:17;;;;;;;13.23;6.00;;;7.70;1.00;;;;;;5019859;28;20437;-71
2022/11/25 07:56:44;;;;;;;11.47;5.40;;;7.70;3.00;;;;;;5007733;28;20568;-71
2022/11/25 07:59:17;;;;;;;8.47;4.20;;;7.70;1.00;;;;;;5017279;28;20225;-72
2022/11/25 08:01:43;;;;;;;9.10;4.57;;;7.80;1.00;;;;;;4997193;28;20852;-71
2022/11/25 08:04:11;;;;;;;8.27;3.53;;;7.90;1.00;;;;;;5004379;28;20441;-72
2022/11/25 08:06:39;;;;;;;6.10;3.70;;;8.20;1.00;;;;;;5010595;28;20496;-71
2022/11/25 08:09:06;;;;;;;8.93;3.60;;;9.00;1.00;;;;;;5006900;28;20600;-71
2022/11/25 08:11:31;;;;;;;5.47;3.63;;;8.10;1.00;;;;;;5010924;28;20423;-72
2022/11/25 08:13:58;;;;;;;10.73;4.00;;;8.30;1.00;;;;;;5015555;28;20440;-71
2022/11/25 08:16:26;;;;;;;13.40;3.90;;;8.40;1.00;;;;;;5020972;28;20206;-72
2022/11/25 08:18:54;;;;;;;6.53;3.27;;;8.40;1.00;;;;;;5006253;28;20446;-70
2022/11/25 08:21:20;;;;;;;7.78;3.80;;;8.40;1.00;;;;;;5042776;22;20776;-69
2022/11/25 08:23:47;;;;;;;6.13;3.60;;;8.40;1.00;;;;;;5026940;28;20172;-69
2022/11/25 08:26:20;;;;;;;6.20;3.47;;;8.50;1.00;;;;;;5026422;28;20464;-68
2022/11/25 08:28:46;;;;;;;6.17;3.60;;;8.40;1.00;;;;;;5029952;28;20428;-69
2022/11/25 08:31:33;;;;;;;7.60;4.33;;;8.50;1.00;;;;;;5024077;28;20878;-70
2022/11/25 08:33:58;;;;;;;6.73;3.77;;;8.50;1.00;;;;;;5019711;28;20439;-70
2022/11/25 08:36:26;;;;;;;9.33;4.13;;;8.50;1.00;;;;;;5014398;28;20429;-68
2022/11/25 08:38:53;;;;;;;12.83;3.80;;;8.40;1.00;;;;;;5016645;28;20667;-69
2022/11/25 08:41:23;;;;;;;11.23;4.03;;;8.40;1.00;;;;;;5020567;28;20471;-71
2022/11/25 08:43:49;;;;;;;6.20;3.90;;;8.40;1.00;;;;;;5013787;28;20456;-70
2022/11/25 08:46:18;;;;;;;8.10;4.60;;;8.30;1.00;;;;;;5018862;28;20521;-70
2022/11/25 08:48:44;;;;;;;11.70;4.07;;;8.40;1.00;;;;;;5022468;28;20475;-69
2022/11/25 08:51:18;;;;;;;7.20;3.80;;;8.30;1.00;;;;;;5013516;28;20927;-69
2022/11/25 08:53:45;;;;;;;9.87;3.80;;;8.30;1.00;;;;;;5021339;28;20197;-71
2022/11/25 08:56:11;;;;;;;11.93;3.60;;;7.80;1.00;;;;;;5018341;28;20520;-68
2022/11/25 08:58:38;;;;;;;9.47;4.10;;;8.50;1.00;;;;;;5020774;28;20429;-69
2022/11/25 09:01:05;;;;;;;5.30;3.30;;;8.50;1.00;;;;;;5011307;28;20496;-69
2022/11/25 09:03:32;;;;;;;8.80;3.60;;;8.50;1.00;;;;;;5012594;28;20441;-70
2022/11/25 09:05:59;;;;;;;8.27;3.30;;;8.60;1.00;;;;;;5011802;28;21003;-70
2022/11/25 09:08:26;;;;;;;6.87;3.80;;;8.60;1.00;;;;;;5017177;28;20429;-69
2022/11/25 09:10:51;;;;;;;7.43;3.30;;;8.50;1.00;;;;;;4999249;28;20487;-72
2022/11/25 09:13:17;;;;;;;8.03;3.33;;;8.50;1.00;;;;;;5013381;28;21050;-70
2022/11/25 09:15:42;;;;;;;5.93;3.33;;;8.60;1.00;;;;;;5017700;28;20248;-70
2022/11/25 09:18:09;;;;;;;6.63;3.40;;;9.10;1.00;;;;;;5014205;28;20320;-69
2022/11/25 09:20:38;;;;;;;13.20;3.80;;;8.60;1.00;;;;;;5011157;28;20195;-71
2022/11/25 09:23:04;;;;;;;6.80;3.40;;;8.60;1.00;;;;;;5003933;28;20915;-69
2022/11/25 09:25:30;;;;;;;8.70;3.50;;;8.60;1.00;;;;;;5009711;28;20504;-69
2022/11/25 09:27:56;;;;;;;6.57;3.57;;;8.50;1.00;;;;;;5010787;28;20445;-70
2022/11/25 09:30:23;;;;;;;7.20;3.27;;;8.50;1.00;;;;;;5012060;28;20217;-69
2022/11/25 09:32:50;;;;;;;10.23;3.47;;;8.50;1.00;;;;;;5012247;28;20182;-69
2022/11/25 09:35:17;;;;;;;8.73;4.03;;;8.50;1.00;;;;;;5017231;28;20436;-69
2022/11/25 09:37:43;;;;;;;9.27;3.60;;;8.70;1.00;;;;;;5015901;28;20451;-69
2022/11/25 09:40:25;;;;;;;8.70;3.30;;;8.80;1.00;;;;;;5000980;28;20437;-69
2022/11/25 09:46:40;;;;;;;9.90;3.90;;;8.80;1.00;;;;;;5010227;28;20537;-69
2022/11/25 09:49:11;;;;;;;9.03;4.13;;;8.80;1.00;;;;;;5012114;28;20440;-71
2022/11/25 09:51:58;;;;;;;11.87;4.30;;;8.80;1.00;;;;;;5009557;28;20455;-71
2022/11/25 09:54:40;;;;;;;9.50;3.70;;;8.80;1.00;;;;;;5009946;28;20869;-72
2022/11/25 09:57:25;;;;;;;9.90;3.90;;;8.80;1.00;;;;;;5003527;28;20508;-69
2022/11/25 10:00:16;;;;;;;9.47;4.07;;;8.70;1.00;;;;;;4997367;28;20433;-70
2022/11/25 10:02:55;;;;;;;10.20;4.40;;;8.70;1.00;;;;;;5008002;28;20454;-68
2022/11/25 10:05:27;;;;;;;9.13;3.77;;;8.80;1.00;;;;;;5009260;28;20465;-71
2022/11/25 10:07:56;;;;;;;8.37;4.30;;;8.90;1.00;;;;;;5000647;28;20442;-70
2022/11/25 10:10:28;;;;;;;8.00;4.60;;;8.90;1.00;;;;;;5001529;28;20516;-68
2022/11/25 10:12:56;;;;;;;9.80;5.60;;;8.90;1.00;;;;;;4993606;28;20916;-69
2022/11/25 10:15:42;;;;;;;10.90;4.60;;;7.10;1.00;;;;;;5003673;28;20450;-69
2022/11/25 10:18:26;;;;;;;8.10;4.70;;;9.00;1.00;;;;;;5006439;28;20440;-70
2022/11/25 10:20:52;;;;;;;9.57;4.53;;;9.10;1.00;;;;;;5000835;28;20466;-68
2022/11/25 10:23:26;;;;;;;6.73;4.50;;;9.20;1.00;;;;;;5005950;28;20476;-69
2022/11/25 10:25:58;;;;;;;10.03;5.00;;;9.30;1.00;;;;;;5012176;28;20469;-69
2022/11/25 10:28:29;;;;;;;7.50;5.00;;;9.30;1.00;;;;;;5010596;28;20437;-71
2022/11/25 10:31:36;;;;;;;7.23;4.23;;;9.30;1.00;;;;;;5010080;28;20892;-70
2022/11/25 10:34:26;;;;;;;12.13;6.20;;;9.30;1.00;;;;;;5002516;28;20528;-69
2022/11/25 10:36:53;;;;;;;9.53;5.27;;;9.40;1.00;;;;;;5008946;28;20437;-72
2022/11/25 10:39:28;;;;;;;12.00;5.03;;;9.50;1.00;;;;;;5010948;28;20421;-70
2022/11/25 10:42:05;;;;;;;9.17;4.70;;;9.50;1.00;;;;;;5011207;28;20495;-70
2022/11/25 10:44:34;;;;;;;9.67;4.87;;;9.70;1.00;;;;;;5011250;28;20562;-70
2022/11/25 10:47:14;;;;;;;8.20;4.87;;;9.70;1.00;;;;;;5011832;28;20579;-70
2022/11/25 10:50:02;;;;;;;9.30;5.17;;;9.40;1.00;;;;;;5010352;28;20402;-70
2022/11/25 10:52:31;;;;;;;10.83;6.50;;;9.70;1.00;;;;;;5009501;28;20469;-70
2022/11/25 10:55:07;;;;;;;12.40;7.03;;;9.70;1.00;;;;;;5010585;28;20397;-70
2022/11/25 10:57:32;;;;;;;6.87;4.70;;;9.90;1.00;;;;;;5011339;28;20406;-73
2022/11/25 11:00:00;;;;;;;7.87;4.90;;;10.00;1.00;;;;;;5011178;28;21034;-71
2022/11/25 11:02:38;;;;;;;9.13;4.30;;;10.00;1.00;;;;;;4996541;28;20274;-70
2022/11/25 11:05:21;;;;;;;8.40;4.53;;;10.00;1.00;;;;;;5002469;28;20420;-70
2022/11/25 11:07:46;;;;;;;10.53;5.13;;;9.80;1.00;;;;;;5011017;28;20460;-70
2022/11/25 11:10:19;;;;;;;7.83;4.70;;;9.70;1.00;;;;;;5011483;28;20769;-70
2022/11/25 11:12:59;;;;;;;8.03;4.60;;;9.70;1.00;;;;;;5009864;28;20209;-70
2022/11/25 11:15:30;;;;;;;11.47;5.17;;;9.70;1.00;;;;;;5011070;28;20460;-71
2022/11/25 11:17:57;;;;;;;14.90;4.80;;;9.70;1.00;;;;;;5010900;28;20410;-70
2022/11/25 11:20:28;;;;;;;10.30;4.77;;;9.90;1.00;;;;;;5010177;28;20994;-67
2022/11/25 11:23:21;;;;;;;9.73;5.00;;;9.90;1.00;;;;;;5009743;28;20417;-71
2022/11/25 11:25:58;;;;;;;8.00;4.30;;;10.00;1.00;;;;;;5008092;28;20493;-72
2022/11/25 11:28:33;;;;;;;12.90;4.87;;;10.00;1.00;;;;;;5005205;28;20519;-72
2022/11/25 11:31:27;;;;;;;9.83;4.87;;;10.10;1.00;;;;;;5008435;28;20468;-68
2022/11/25 11:34:15;;;;;;;10.40;4.60;;;10.00;1.00;;;;;;4999705;28;20406;-70
2022/11/25 11:36:54;;;;;;;10.00;4.50;;;10.00;1.00;;;;;;4993690;28;20504;-70
2022/11/25 11:39:27;;;;;;;9.00;5.20;;;10.00;1.00;;;;;;4990417;28;20438;-70
2022/11/25 11:42:14;;;;;;;7.80;4.60;;;10.00;1.00;;;;;;4990224;28;20808;-73
2022/11/25 11:45:08;;;;;;;11.80;5.20;;;10.00;1.00;;;;;;4990608;28;20418;-71
2022/11/25 11:47:52;;;;;;;10.10;5.20;;;9.90;1.00;;;;;;4990573;28;20548;-70
2022/11/25 11:50:39;;;;;;;9.97;5.40;;;9.90;1.00;;;;;;4990482;28;20788;-70
2022/11/25 11:53:29;;;;;;;7.97;4.43;;;9.90;1.00;;;;;;4989596;28;20895;-70
2022/11/25 11:56:20;;;;;;;10.60;4.90;;;10.00;1.00;;;;;;4990778;28;20414;-70
2022/11/25 11:58:54;;;;;;;11.03;4.83;;;10.00;1.00;;;;;;4989856;28;20485;-70
2022/11/25 12:01:31;;;;;;;10.10;5.27;;;10.10;1.00;;;;;;4993720;28;20434;-70
2022/11/25 12:04:02;;;;;;;11.50;5.70;;;10.20;1.00;;;;;;5001036;28;20398;-70
2022/11/25 12:06:33;;;;;;;11.20;5.10;;;10.30;1.00;;;;;;5009687;28;20503;-70
2022/11/25 12:09:07;;;;;;;11.33;5.30;;;10.30;1.00;;;;;;5010104;28;20421;-71
2022/11/25 12:11:40;;;;;;;11.30;4.50;;;10.40;1.00;;;;;;5009136;28;20919;-70
2022/11/25 12:14:30;;;;;;;9.47;4.70;;;10.50;1.00;;;;;;5010323;28;20405;-70
2022/11/25 12:16:59;;;;;;;8.77;5.13;;;10.60;1.00;;;;;;5008825;28;20409;-70
2022/11/25 12:19:44;;;;;;;11.93;5.80;;;10.80;1.00;;;;;;5009710;28;20412;-73
2022/11/25 12:22:27;;;;;;;17.03;8.20;;;11.10;1.00;;;;;;5008867;28;20452;-71
2022/11/25 12:24:58;;;;;;;9.63;4.90;;;11.20;1.00;;;;;;5009847;28;20415;-70
2022/11/25 12:27:30;;;;;;;9.77;5.60;;;11.30;1.00;;;;;;5009308;28;20440;-72
2022/11/25 12:30:15;;;;;;;9.33;5.13;;;11.40;1.00;;;;;;5009999;28;20904;-71
2022/11/25 12:33:16;;;;;;;10.70;4.90;;;11.50;1.00;;;;;;5005385;28;20432;-70
2022/11/25 12:36:08;;;;;;;12.77;7.80;;;11.40;1.00;;;;;;4989672;28;20414;-73
2022/11/25 12:38:56;;;;;;;19.83;9.40;;;11.30;1.00;;;;;;4997833;28;20414;-70
2022/11/25 12:41:50;;;;;;;11.33;5.57;;;11.40;1.00;;;;;;5009131;28;20457;-70
2022/11/25 12:44:23;;;;;;;11.23;5.80;;;11.30;1.00;;;;;;5009944;28;20405;-70
2022/11/25 12:46:52;;;;;;;15.77;5.90;;;11.30;1.00;;;;;;5010036;28;20853;-69
2022/11/25 12:49:25;;;;;;;9.53;5.43;;;11.40;1.00;;;;;;5008665;28;20864;-70
2022/11/25 12:51:50;;;;;;;13.50;5.37;;;11.40;1.00;;;;;;5009400;28;20425;-70
2022/11/25 12:54:43;;;;;;;15.60;6.20;;;11.50;1.00;;;;;;5009266;28;20942;-70
2022/11/25 12:57:24;;;;;;;11.83;6.00;;;11.80;1.00;;;;;;5010337;28;20523;-72
2022/11/25 13:00:01;;;;;;;15.13;7.03;;;11.90;1.00;;;;;;5013036;28;20428;-72
2022/11/25 13:02:45;;;;;;;9.10;5.30;;;12.10;1.00;;;;;;5011535;28;20943;-70
2022/11/25 13:05:32;;;;;;;19.10;9.87;;;12.40;1.00;;;;;;4993123;28;20433;-70
2022/11/25 13:08:22;;;;;;;9.30;4.97;;;12.60;1.00;;;;;;4993485;28;20417;-70
2022/11/25 13:11:12;;;;;;;7.53;5.13;;;12.50;1.00;;;;;;4993581;28;20832;-72
2022/11/25 13:13:50;;;;;;;9.47;5.03;;;12.60;1.00;;;;;;4994133;28;20528;-70
2022/11/25 13:16:17;;;;;;;22.20;5.60;;;12.90;1.00;;;;;;4993449;28;20412;-70
2022/11/25 13:18:44;;;;;;;11.80;6.80;;;12.90;1.00;;;;;;4994220;28;20476;-71
2022/11/25 13:21:12;;;;;;;9.00;5.30;;;12.60;1.00;;;;;;4991587;28;20975;-70
2022/11/25 13:23:46;;;;;;;8.80;4.40;;;12.30;1.00;;;;;;5001760;28;20472;-70
2022/11/25 13:26:35;;;;;;;15.50;5.10;;;12.30;1.00;;;;;;5012502;28;20482;-70